Time;durP1;ratioP1;P1;durP2;ratioP2;P2;SDS_P1;SDS_P2;PMS_P1;PMS_P2;Temp;Humidity;BMP_temperature;BMP_pressure;BME280_temperature;BME280_humidity;BME280_pressure;Samples;Min_cycle;Max_cycle;Signal;HPM_P1;HPM_P2
2023/08/18 00:00:34;;;;;;;18.58;12.90;;;;;;;;;;5013226;28;25086;-77
2023/08/18 00:03:00;;;;;;;16.92;12.18;;;;;;;;;;5012380;28;25082;-79
2023/08/18 00:05:26;;;;;;;16.27;13.82;;;;;;;;;;5015608;28;25061;-78
2023/08/18 00:07:52;;;;;;;14.07;12.48;;;;;;;;;;5025274;28;25061;-77
2023/08/18 00:10:18;;;;;;;16.27;13.05;;;;;;;;;;5014614;28;25080;-76
2023/08/18 00:12:44;;;;;;;15.48;11.35;;;;;;;;;;5013203;28;25099;-78
2023/08/18 00:15:10;;;;;;;15.30;12.95;;;;;;;;;;5017588;28;25063;-78
2023/08/18 00:17:36;;;;;;;16.77;12.32;;;;;;;;;;5026021;28;25056;-78
2023/08/18 00:20:03;;;;;;;18.67;12.70;;;;;;;;;;5020565;28;25175;-76
2023/08/18 00:22:29;;;;;;;13.95;11.80;;;;;;;;;;5014419;28;25051;-78
2023/08/18 00:24:56;;;;;;;13.38;11.55;;;;;;;;;;5015856;28;25077;-77
2023/08/18 00:27:22;;;;;;;13.75;11.23;;;;;;;;;;5017113;28;25056;-77
2023/08/18 00:29:49;;;;;;;15.00;12.13;;;;;;;;;;5015661;28;25046;-76
2023/08/18 00:32:15;;;;;;;14.30;12.02;;;;;;;;;;5015763;28;25103;-75
2023/08/18 00:34:41;;;;;;;14.43;12.00;;;;;;;;;;5005246;28;25103;-76
2023/08/18 00:37:07;;;;;;;15.68;11.90;;;;;;;;;;5022076;28;25073;-77
2023/08/18 00:39:33;;;;;;;17.30;11.43;;;;;;;;;;5008456;28;25073;-74
2023/08/18 00:41:59;;;;;;;15.30;11.55;;;;;;;;;;5014100;28;25048;-76
2023/08/18 00:44:25;;;;;;;15.40;11.05;;;;;;;;;;5016820;28;25077;-76
2023/08/18 00:46:51;;;;;;;15.75;11.30;;;;;;;;;;5019379;28;25081;-78
2023/08/18 00:49:18;;;;;;;16.35;11.23;;;;;;;;;;5022448;28;25061;-77
2023/08/18 00:51:46;;;;;;;12.48;10.80;;;;;;;;;;5023369;28;25067;-76
2023/08/18 00:54:12;;;;;;;13.70;11.00;;;;;;;;;;5012447;28;25088;-76
2023/08/18 00:56:39;;;;;;;15.88;11.07;;;;;;;;;;5014266;28;25059;-78
2023/08/18 00:59:06;;;;;;;13.27;10.98;;;;;;;;;;5011562;28;25119;-76
2023/08/18 01:01:33;;;;;;;16.13;11.52;;;;;;;;;;5025053;28;25092;-77
2023/08/18 01:03:59;;;;;;;12.57;11.07;;;;;;;;;;5021073;28;25075;-76
2023/08/18 01:06:25;;;;;;;12.43;10.65;;;;;;;;;;5020959;28;25067;-77
2023/08/18 01:08:51;;;;;;;14.10;10.98;;;;;;;;;;5010712;28;25131;-76
2023/08/18 01:11:22;;;;;;;12.98;10.80;;;;;;;;;;5021367;28;25177;-74
2023/08/18 01:13:55;;;;;;;14.45;10.32;;;;;;;;;;5027449;28;25057;-76
2023/08/18 01:16:22;;;;;;;13.63;12.07;;;;;;;;;;5023143;28;25053;-77
2023/08/18 01:18:49;;;;;;;12.90;10.95;;;;;;;;;;5020538;28;25072;-77
2023/08/18 01:21:17;;;;;;;18.90;11.68;;;;;;;;;;5007294;28;25088;-77
2023/08/18 01:23:43;;;;;;;13.90;11.00;;;;;;;;;;5023886;28;25072;-76
2023/08/18 01:26:09;;;;;;;13.10;11.18;;;;;;;;;;5011572;28;25068;-78
2023/08/18 01:28:36;;;;;;;13.63;10.80;;;;;;;;;;5010224;28;25072;-77
2023/08/18 01:31:08;;;;;;;14.70;11.18;;;;;;;;;;5007210;28;25061;-76
2023/08/18 01:33:50;;;;;;;15.30;11.20;;;;;;;;;;5012571;28;25082;-76
2023/08/18 01:36:21;;;;;;;14.75;10.50;;;;;;;;;;5013044;28;25068;-78
2023/08/18 01:38:48;;;;;;;13.07;10.90;;;;;;;;;;5003196;28;25061;-80
2023/08/18 01:41:16;;;;;;;13.20;10.85;;;;;;;;;;5015275;28;25062;-77
2023/08/18 01:43:42;;;;;;;12.50;11.15;;;;;;;;;;5020418;28;25055;-78
2023/08/18 01:46:08;;;;;;;12.02;10.77;;;;;;;;;;5012988;28;25060;-77
2023/08/18 01:48:34;;;;;;;14.02;11.52;;;;;;;;;;5006051;28;25059;-75
2023/08/18 01:51:00;;;;;;;13.02;11.13;;;;;;;;;;5028375;28;25070;-79
2023/08/18 01:53:26;;;;;;;15.02;11.98;;;;;;;;;;5030322;28;25079;-77
2023/08/18 01:55:52;;;;;;;12.98;11.55;;;;;;;;;;5026678;28;25062;-76
2023/08/18 01:58:19;;;;;;;16.30;11.60;;;;;;;;;;5029596;28;25073;-76
2023/08/18 02:00:45;;;;;;;15.13;11.40;;;;;;;;;;5019493;28;25066;-78
2023/08/18 02:03:11;;;;;;;14.38;11.88;;;;;;;;;;5024613;28;25076;-76
2023/08/18 02:05:40;;;;;;;13.40;11.68;;;;;;;;;;5014861;28;25087;-77
2023/08/18 02:08:06;;;;;;;14.77;12.02;;;;;;;;;;5011473;28;25117;-76
2023/08/18 02:10:32;;;;;;;14.50;12.00;;;;;;;;;;5008005;28;25068;-78
2023/08/18 02:12:58;;;;;;;15.32;12.73;;;;;;;;;;5008307;28;25057;-76
2023/08/18 02:15:24;;;;;;;18.30;11.93;;;;;;;;;;5016484;28;25063;-77
2023/08/18 02:17:50;;;;;;;16.05;11.93;;;;;;;;;;5005920;28;25137;-77
2023/08/18 02:20:16;;;;;;;13.93;11.80;;;;;;;;;;5011854;28;25155;-78
2023/08/18 02:22:42;;;;;;;12.68;11.38;;;;;;;;;;5007545;28;25046;-76
2023/08/18 02:25:09;;;;;;;13.13;11.73;;;;;;;;;;5016861;28;25088;-78
2023/08/18 02:27:35;;;;;;;14.60;12.38;;;;;;;;;;5009175;28;25051;-77
2023/08/18 02:30:01;;;;;;;14.50;12.90;;;;;;;;;;5005215;28;25052;-78
2023/08/18 02:32:28;;;;;;;17.08;13.05;;;;;;;;;;5000365;28;25167;-77
2023/08/18 02:34:54;;;;;;;16.58;12.32;;;;;;;;;;5009032;28;25068;-78
2023/08/18 02:37:20;;;;;;;12.50;10.93;;;;;;;;;;5008439;28;25065;-78
2023/08/18 02:39:46;;;;;;;15.27;12.65;;;;;;;;;;5008715;28;25064;-78
2023/08/18 02:42:12;;;;;;;13.45;11.95;;;;;;;;;;5006155;28;25099;-76
2023/08/18 02:44:38;;;;;;;13.35;11.55;;;;;;;;;;4998139;28;25049;-78
2023/08/18 02:47:04;;;;;;;15.77;11.73;;;;;;;;;;5023537;28;25060;-79
2023/08/18 02:49:30;;;;;;;14.68;10.90;;;;;;;;;;5009066;28;25092;-78
2023/08/18 02:51:56;;;;;;;11.30;9.98;;;;;;;;;;5008047;28;25112;-77
2023/08/18 02:54:22;;;;;;;14.35;10.73;;;;;;;;;;5013572;28;25063;-78
2023/08/18 02:56:48;;;;;;;12.18;10.15;;;;;;;;;;5018907;28;25048;-78
2023/08/18 02:59:14;;;;;;;16.88;10.75;;;;;;;;;;5016335;28;25075;-77
2023/08/18 03:01:40;;;;;;;12.98;10.82;;;;;;;;;;5022611;28;25064;-76
2023/08/18 03:04:06;;;;;;;12.60;10.13;;;;;;;;;;5014243;28;25071;-77
2023/08/18 03:06:32;;;;;;;11.90;10.30;;;;;;;;;;5015292;28;25075;-77
2023/08/18 03:08:58;;;;;;;11.02;9.65;;;;;;;;;;5005838;28;25061;-79
2023/08/18 03:11:24;;;;;;;14.38;10.45;;;;;;;;;;5011704;28;25070;-78
2023/08/18 03:13:51;;;;;;;11.82;10.50;;;;;;;;;;5008599;28;25101;-77
2023/08/18 03:16:20;;;;;;;10.93;9.60;;;;;;;;;;5007315;28;25069;-76
2023/08/18 03:18:47;;;;;;;14.27;11.18;;;;;;;;;;5012889;28;25136;-77
2023/08/18 03:21:14;;;;;;;16.42;11.20;;;;;;;;;;5001674;28;25102;-77
2023/08/18 03:23:40;;;;;;;17.65;13.05;;;;;;;;;;5012599;28;25076;-78
2023/08/18 03:26:06;;;;;;;15.85;12.27;;;;;;;;;;5024854;28;25133;-75
2023/08/18 03:28:34;;;;;;;16.33;12.82;;;;;;;;;;5008263;28;25066;-78
2023/08/18 03:31:01;;;;;;;19.60;13.40;;;;;;;;;;5016346;28;25077;-77
2023/08/18 03:33:27;;;;;;;14.77;13.10;;;;;;;;;;5012075;28;25100;-77
2023/08/18 03:35:54;;;;;;;15.35;13.52;;;;;;;;;;5022318;28;25069;-76
2023/08/18 03:38:20;;;;;;;15.80;13.98;;;;;;;;;;5014880;28;25098;-76
2023/08/18 03:40:46;;;;;;;17.40;14.23;;;;;;;;;;5017246;28;25060;-78
2023/08/18 03:43:12;;;;;;;20.30;15.88;;;;;;;;;;5023084;28;25058;-79
2023/08/18 03:45:38;;;;;;;20.02;15.50;;;;;;;;;;5019582;28;25053;-79
2023/08/18 03:48:04;;;;;;;17.08;13.80;;;;;;;;;;5019560;28;25053;-80
2023/08/18 03:50:30;;;;;;;17.35;14.05;;;;;;;;;;5036466;28;25071;-78
2023/08/18 03:52:57;;;;;;;19.85;16.08;;;;;;;;;;5027688;28;25124;-79
2023/08/18 03:55:23;;;;;;;17.98;15.23;;;;;;;;;;5018697;28;25155;-80
2023/08/18 03:57:49;;;;;;;19.30;14.98;;;;;;;;;;5022044;28;25130;-79
2023/08/18 04:00:17;;;;;;;19.25;15.10;;;;;;;;;;5018765;28;25058;-80
2023/08/18 04:02:43;;;;;;;20.02;15.02;;;;;;;;;;5011918;28;25077;-78
2023/08/18 04:05:09;;;;;;;20.45;14.60;;;;;;;;;;5016989;28;25078;-78
2023/08/18 04:07:35;;;;;;;18.08;14.18;;;;;;;;;;5018876;28;25072;-79
2023/08/18 04:10:03;;;;;;;19.13;14.18;;;;;;;;;;5010555;28;25076;-79
2023/08/18 04:12:29;;;;;;;20.15;15.68;;;;;;;;;;5010355;28;25090;-77
2023/08/18 04:14:55;;;;;;;19.52;14.93;;;;;;;;;;5016209;28;25126;-78
2023/08/18 04:17:21;;;;;;;19.63;15.52;;;;;;;;;;5006267;28;25068;-78
2023/08/18 04:19:47;;;;;;;18.55;14.90;;;;;;;;;;5021210;28;25156;-79
2023/08/18 04:22:12;;;;;;;22.13;14.68;;;;;;;;;;5016334;28;25170;-77
2023/08/18 04:24:39;;;;;;;17.55;14.13;;;;;;;;;;5015126;28;25138;-80
2023/08/18 04:27:04;;;;;;;21.17;14.68;;;;;;;;;;5004684;28;25104;-78
2023/08/18 04:29:31;;;;;;;19.58;15.00;;;;;;;;;;5006292;28;25062;-78
2023/08/18 04:31:57;;;;;;;18.95;14.13;;;;;;;;;;5011968;28;26202;-79
2023/08/18 04:34:23;;;;;;;21.10;13.85;;;;;;;;;;5011661;28;25053;-79
2023/08/18 04:36:49;;;;;;;19.70;14.40;;;;;;;;;;5018867;28;25069;-79
2023/08/18 04:39:16;;;;;;;17.67;13.77;;;;;;;;;;5016425;28;25097;-80
2023/08/18 04:41:42;;;;;;;17.02;13.13;;;;;;;;;;5012884;28;25077;-77
2023/08/18 04:44:08;;;;;;;16.67;13.45;;;;;;;;;;5015675;28;25063;-79
2023/08/18 04:46:34;;;;;;;20.08;13.73;;;;;;;;;;5005477;28;25057;-79
2023/08/18 04:49:00;;;;;;;18.35;13.32;;;;;;;;;;5008598;28;25091;-80
2023/08/18 04:51:26;;;;;;;17.67;13.73;;;;;;;;;;5011639;28;25060;-79
2023/08/18 04:53:52;;;;;;;15.45;12.27;;;;;;;;;;5016598;28;25056;-79
2023/08/18 04:56:18;;;;;;;16.55;12.60;;;;;;;;;;5014268;28;25060;-79
2023/08/18 04:58:44;;;;;;;18.13;13.13;;;;;;;;;;5013148;28;25094;-77
2023/08/18 05:01:10;;;;;;;16.48;12.63;;;;;;;;;;5013780;28;25065;-79
2023/08/18 05:03:35;;;;;;;15.93;13.38;;;;;;;;;;5011566;28;25096;-79
2023/08/18 05:06:03;;;;;;;16.75;12.55;;;;;;;;;;5010042;28;25116;-79
2023/08/18 05:08:29;;;;;;;21.90;13.82;;;;;;;;;;5009555;28;25108;-79
2023/08/18 05:11:05;;;;;;;17.00;13.25;;;;;;;;;;5013106;28;25090;-79
2023/08/18 05:13:35;;;;;;;15.48;12.52;;;;;;;;;;5011337;28;25067;-79
2023/08/18 05:16:01;;;;;;;15.40;12.55;;;;;;;;;;5014005;28;25057;-78
2023/08/18 05:18:30;;;;;;;16.75;12.82;;;;;;;;;;5024224;28;25062;-79
2023/08/18 05:20:57;;;;;;;15.07;12.38;;;;;;;;;;5022515;28;25068;-77
2023/08/18 05:23:24;;;;;;;18.13;11.93;;;;;;;;;;5018495;28;25083;-79
2023/08/18 05:25:53;;;;;;;16.42;12.40;;;;;;;;;;5016164;28;25056;-78
2023/08/18 05:28:20;;;;;;;16.52;12.25;;;;;;;;;;5014694;28;25179;-78
2023/08/18 05:30:47;;;;;;;18.27;11.75;;;;;;;;;;5010002;28;25041;-78
2023/08/18 05:33:13;;;;;;;16.58;11.70;;;;;;;;;;5004499;28;25069;-78
2023/08/18 05:35:39;;;;;;;14.95;11.02;;;;;;;;;;5014976;28;25059;-78
2023/08/18 05:38:10;;;;;;;16.08;11.25;;;;;;;;;;5017178;28;25080;-79
2023/08/18 05:40:47;;;;;;;14.95;12.32;;;;;;;;;;5025073;28;25103;-79
2023/08/18 05:43:14;;;;;;;13.55;10.77;;;;;;;;;;5023500;28;25074;-80
2023/08/18 05:45:40;;;;;;;14.23;10.85;;;;;;;;;;5021946;28;25087;-79
2023/08/18 05:48:06;;;;;;;14.02;10.90;;;;;;;;;;5014889;28;25064;-75
2023/08/18 05:50:32;;;;;;;14.30;10.73;;;;;;;;;;5016464;28;25142;-77
2023/08/18 05:52:59;;;;;;;14.65;11.68;;;;;;;;;;5015887;28;25081;-78
2023/08/18 05:55:25;;;;;;;18.52;12.38;;;;;;;;;;5000833;28;25090;-76
2023/08/18 05:57:52;;;;;;;16.20;11.13;;;;;;;;;;5013903;28;25063;-75
2023/08/18 06:00:19;;;;;;;15.70;11.57;;;;;;;;;;5019341;28;25074;-78
2023/08/18 06:02:45;;;;;;;17.48;12.25;;;;;;;;;;5009291;28;25048;-78
2023/08/18 06:05:11;;;;;;;15.18;11.65;;;;;;;;;;5009951;28;25148;-77
2023/08/18 06:07:39;;;;;;;18.08;12.82;;;;;;;;;;5024012;28;25076;-78
2023/08/18 06:10:06;;;;;;;14.10;11.65;;;;;;;;;;5007299;28;25050;-79
2023/08/18 06:12:32;;;;;;;14.23;12.18;;;;;;;;;;4994222;28;25070;-78
2023/08/18 06:14:58;;;;;;;20.70;13.82;;;;;;;;;;5009682;28;25088;-78
2023/08/18 06:17:24;;;;;;;18.50;12.88;;;;;;;;;;5010160;28;25119;-78
2023/08/18 06:19:50;;;;;;;19.17;13.65;;;;;;;;;;5012463;28;25059;-78
2023/08/18 06:22:16;;;;;;;19.10;14.40;;;;;;;;;;5017462;28;25095;-78
2023/08/18 06:24:42;;;;;;;16.45;13.30;;;;;;;;;;5009133;28;25099;-76
2023/08/18 06:27:08;;;;;;;21.63;14.27;;;;;;;;;;4997807;28;25057;-78
2023/08/18 06:29:34;;;;;;;17.52;13.82;;;;;;;;;;5009980;28;25077;-80
2023/08/18 06:32:00;;;;;;;20.08;14.15;;;;;;;;;;5009499;28;25135;-78
2023/08/18 06:34:26;;;;;;;18.27;13.75;;;;;;;;;;4999757;28;25161;-78
2023/08/18 06:36:52;;;;;;;20.45;13.52;;;;;;;;;;5001131;28;25049;-78
2023/08/18 06:39:18;;;;;;;17.88;14.20;;;;;;;;;;5013377;28;25081;-78
2023/08/18 06:41:44;;;;;;;19.00;13.15;;;;;;;;;;5018870;28;25070;-79
2023/08/18 06:44:11;;;;;;;18.80;12.98;;;;;;;;;;5027553;28;25073;-77
2023/08/18 06:46:37;;;;;;;20.50;14.15;;;;;;;;;;5033167;28;25060;-79
2023/08/18 06:49:03;;;;;;;18.75;13.90;;;;;;;;;;5022248;28;25075;-81
2023/08/18 06:51:29;;;;;;;21.50;13.75;;;;;;;;;;5028851;28;25097;-80
2023/08/18 06:53:55;;;;;;;18.67;13.57;;;;;;;;;;5034546;28;25079;-78
2023/08/18 06:56:21;;;;;;;19.95;14.73;;;;;;;;;;5021380;28;25071;-80
2023/08/18 06:58:47;;;;;;;23.83;15.27;;;;;;;;;;5037040;28;25059;-81
2023/08/18 07:01:13;;;;;;;20.42;14.85;;;;;;;;;;5033708;28;25074;-79
2023/08/18 07:03:39;;;;;;;19.35;13.00;;;;;;;;;;5025125;28;25085;-81
2023/08/18 07:06:05;;;;;;;21.17;14.50;;;;;;;;;;5040416;28;25075;-78
2023/08/18 07:08:32;;;;;;;20.08;13.30;;;;;;;;;;5026985;28;25088;-79
2023/08/18 07:10:58;;;;;;;20.75;14.45;;;;;;;;;;5026037;28;25056;-78
2023/08/18 07:13:24;;;;;;;22.80;15.13;;;;;;;;;;5030761;28;25111;-76
2023/08/18 07:15:50;;;;;;;21.83;14.80;;;;;;;;;;5006576;28;25071;-78
2023/08/18 07:18:17;;;;;;;25.13;15.07;;;;;;;;;;5013331;28;25055;-80
2023/08/18 07:20:47;;;;;;;23.02;15.88;;;;;;;;;;5015113;28;25070;-78
2023/08/18 07:23:14;;;;;;;20.73;15.07;;;;;;;;;;5014255;28;25347;-77
2023/08/18 07:25:39;;;;;;;23.85;15.80;;;;;;;;;;5018864;28;25066;-78
2023/08/18 07:28:06;;;;;;;22.92;15.95;;;;;;;;;;5008099;28;25058;-78
2023/08/18 07:30:32;;;;;;;28.35;15.80;;;;;;;;;;5008094;28;25063;-77
2023/08/18 07:32:58;;;;;;;21.50;14.27;;;;;;;;;;5014933;28;25066;-79
2023/08/18 07:35:24;;;;;;;23.20;15.20;;;;;;;;;;5024275;28;25069;-79
2023/08/18 07:37:51;;;;;;;24.27;15.65;;;;;;;;;;5007737;28;25058;-78
2023/08/18 07:40:17;;;;;;;23.13;13.82;;;;;;;;;;5019245;28;25070;-75
2023/08/18 07:42:44;;;;;;;19.88;14.50;;;;;;;;;;5022944;28;25065;-79
2023/08/18 07:45:10;;;;;;;24.05;14.68;;;;;;;;;;5027598;28;25087;-78
2023/08/18 07:47:42;;;;;;;24.55;15.90;;;;;;;;;;5016084;28;25154;-79
2023/08/18 07:50:12;;;;;;;22.77;14.63;;;;;;;;;;5010114;28;25464;-78
2023/08/18 07:52:38;;;;;;;23.10;15.48;;;;;;;;;;5022862;28;25051;-78
2023/08/18 07:55:05;;;;;;;24.65;14.32;;;;;;;;;;5019719;28;25068;-78
2023/08/18 07:57:31;;;;;;;21.00;14.88;;;;;;;;;;5021635;28;25092;-78
2023/08/18 07:59:58;;;;;;;24.65;15.25;;;;;;;;;;5016048;28;25085;-78
2023/08/18 08:02:24;;;;;;;18.75;14.82;;;;;;;;;;5021343;28;25061;-79
2023/08/18 08:04:51;;;;;;;23.15;14.63;;;;;;;;;;5024671;28;25072;-79
2023/08/18 08:07:17;;;;;;;21.20;15.35;;;;;;;;;;5024090;28;25164;-80
2023/08/18 08:09:43;;;;;;;20.17;14.55;;;;;;;;;;5014358;28;25068;-80
2023/08/18 08:12:09;;;;;;;23.98;16.65;;;;;;;;;;5021873;28;25148;-78
2023/08/18 08:14:34;;;;;;;25.35;15.38;;;;;;;;;;5027678;28;25095;-79
2023/08/18 08:17:00;;;;;;;20.10;15.20;;;;;;;;;;5032131;28;25080;-80
2023/08/18 08:19:26;;;;;;;25.77;17.02;;;;;;;;;;5033616;28;25061;-81
2023/08/18 08:21:52;;;;;;;25.33;15.73;;;;;;;;;;5024476;28;25081;-80
2023/08/18 08:24:18;;;;;;;24.50;15.57;;;;;;;;;;5025783;28;25104;-78
2023/08/18 08:26:44;;;;;;;28.17;15.68;;;;;;;;;;5033913;28;25103;-79
2023/08/18 08:29:10;;;;;;;23.75;14.77;;;;;;;;;;5023759;28;25089;-80
2023/08/18 08:31:37;;;;;;;27.20;15.43;;;;;;;;;;5033812;28;25063;-77
2023/08/18 08:34:03;;;;;;;25.33;15.38;;;;;;;;;;5017265;28;25069;-81
2023/08/18 08:36:32;;;;;;;28.48;15.20;;;;;;;;;;5025727;28;25068;-78
2023/08/18 08:38:59;;;;;;;26.80;16.75;;;;;;;;;;5013111;28;25085;-77
2023/08/18 08:41:25;;;;;;;27.70;16.38;;;;;;;;;;5012296;28;25089;-78
2023/08/18 08:43:51;;;;;;;26.80;15.75;;;;;;;;;;5013293;28;25056;-79
2023/08/18 08:46:17;;;;;;;23.40;15.65;;;;;;;;;;5006741;28;25066;-76
2023/08/18 08:48:46;;;;;;;29.08;17.45;;;;;;;;;;5014232;28;25132;-80
2023/08/18 08:51:12;;;;;;;30.67;18.33;;;;;;;;;;5015596;28;25072;-77
2023/08/18 08:53:40;;;;;;;35.58;19.05;;;;;;;;;;5014430;28;25102;-77
2023/08/18 08:56:07;;;;;;;33.97;18.10;;;;;;;;;;5023236;28;25066;-77
2023/08/18 08:58:34;;;;;;;35.67;17.98;;;;;;;;;;5003646;28;25097;-77
2023/08/18 09:01:06;;;;;;;34.50;19.30;;;;;;;;;;5018128;28;25076;-77
2023/08/18 09:03:33;;;;;;;36.67;19.40;;;;;;;;;;5012642;28;25069;-79
2023/08/18 09:05:59;;;;;;;40.85;20.00;;;;;;;;;;5012025;28;25076;-78
2023/08/18 09:08:25;;;;;;;39.72;20.15;;;;;;;;;;5010336;28;25085;-78
2023/08/18 09:10:51;;;;;;;40.30;20.98;;;;;;;;;;5007555;28;25073;-77
2023/08/18 09:13:17;;;;;;;39.22;20.40;;;;;;;;;;5013723;28;25082;-78
2023/08/18 09:15:47;;;;;;;35.38;18.42;;;;;;;;;;4999550;28;25083;-78
2023/08/18 09:18:14;;;;;;;32.65;19.90;;;;;;;;;;4997831;28;25055;-76
2023/08/18 09:20:44;;;;;;;37.10;19.77;;;;;;;;;;5012306;28;25159;-77
2023/08/18 09:23:10;;;;;;;34.83;19.58;;;;;;;;;;5006824;28;25071;-76
2023/08/18 09:25:37;;;;;;;33.08;18.70;;;;;;;;;;5007517;28;25073;-75
2023/08/18 09:28:03;;;;;;;37.58;20.10;;;;;;;;;;5006097;28;25058;-76
2023/08/18 09:30:30;;;;;;;30.58;17.85;;;;;;;;;;5005674;28;25138;-77
2023/08/18 09:32:57;;;;;;;29.13;17.08;;;;;;;;;;5007181;28;25083;-78
2023/08/18 09:35:24;;;;;;;27.48;17.67;;;;;;;;;;5019610;28;25145;-76
2023/08/18 09:37:56;;;;;;;28.50;17.90;;;;;;;;;;5023038;28;25158;-78
2023/08/18 09:40:22;;;;;;;26.63;17.33;;;;;;;;;;5009714;28;25139;-77
2023/08/18 09:42:48;;;;;;;25.27;15.98;;;;;;;;;;5013493;28;25143;-76
2023/08/18 09:45:15;;;;;;;25.27;17.02;;;;;;;;;;5015299;28;25093;-76
2023/08/18 09:47:44;;;;;;;24.42;17.02;;;;;;;;;;5016840;28;25064;-80
2023/08/18 09:50:11;;;;;;;28.35;17.25;;;;;;;;;;5000390;28;25097;-77
2023/08/18 09:52:41;;;;;;;26.52;17.40;;;;;;;;;;5006674;28;25190;-77
2023/08/18 09:55:07;;;;;;;20.55;15.25;;;;;;;;;;5016304;28;25156;-77
2023/08/18 09:57:49;;;;;;;25.13;15.75;;;;;;;;;;5008785;28;25065;-76
2023/08/18 10:00:15;;;;;;;22.50;15.97;;;;;;;;;;5008881;28;25117;-77
2023/08/18 10:02:44;;;;;;;25.35;17.63;;;;;;;;;;5015239;28;25105;-76
2023/08/18 10:05:10;;;;;;;22.20;15.95;;;;;;;;;;5014824;28;25122;-76
2023/08/18 10:07:37;;;;;;;22.15;16.38;;;;;;;;;;5019482;28;25049;-75
2023/08/18 10:10:03;;;;;;;23.35;17.40;;;;;;;;;;5006484;28;25069;-75
2023/08/18 10:12:29;;;;;;;25.10;18.20;;;;;;;;;;5015269;28;25148;-77
2023/08/18 10:14:55;;;;;;;23.75;17.02;;;;;;;;;;5007888;28;25069;-77
2023/08/18 10:17:24;;;;;;;23.42;17.63;;;;;;;;;;5010197;28;25063;-76
2023/08/18 10:19:52;;;;;;;24.63;17.23;;;;;;;;;;5011806;28;25066;-76
2023/08/18 10:22:19;;;;;;;28.83;18.45;;;;;;;;;;5016061;28;25086;-75
2023/08/18 10:24:46;;;;;;;27.13;17.45;;;;;;;;;;5010445;28;25066;-76
2023/08/18 10:27:13;;;;;;;28.02;20.38;;;;;;;;;;5009699;28;25108;-76
2023/08/18 10:29:43;;;;;;;28.23;19.85;;;;;;;;;;5019592;28;25081;-75
2023/08/18 10:32:09;;;;;;;29.55;20.75;;;;;;;;;;5014475;28;25061;-76
2023/08/18 10:34:37;;;;;;;27.80;19.35;;;;;;;;;;5001449;28;25098;-76
2023/08/18 10:37:07;;;;;;;28.38;19.60;;;;;;;;;;5019975;28;25053;-77
2023/08/18 10:39:40;;;;;;;29.25;20.42;;;;;;;;;;5009810;28;25054;-76
2023/08/18 10:42:13;;;;;;;31.05;19.77;;;;;;;;;;5019761;28;25047;-76
2023/08/18 10:44:55;;;;;;;30.80;20.83;;;;;;;;;;5010706;28;25045;-76
2023/08/18 10:47:31;;;;;;;29.58;20.60;;;;;;;;;;5014456;28;25072;-75
2023/08/18 10:50:00;;;;;;;29.42;21.67;;;;;;;;;;5002895;28;25056;-75
2023/08/18 10:52:28;;;;;;;30.90;20.05;;;;;;;;;;5006700;28;25135;-77
2023/08/18 10:54:54;;;;;;;27.80;20.10;;;;;;;;;;5008304;28;25053;-75
2023/08/18 10:57:20;;;;;;;25.35;19.33;;;;;;;;;;5017863;28;25064;-75
2023/08/18 10:59:46;;;;;;;31.42;20.65;;;;;;;;;;5008680;28;25063;-76
2023/08/18 11:02:13;;;;;;;26.25;20.45;;;;;;;;;;5017413;28;25078;-75
2023/08/18 11:04:39;;;;;;;32.92;23.17;;;;;;;;;;5004440;28;25050;-76
2023/08/18 11:07:05;;;;;;;34.03;22.08;;;;;;;;;;5013170;28;25069;-73
2023/08/18 11:09:32;;;;;;;38.00;20.73;;;;;;;;;;5001090;28;25048;-76
2023/08/18 11:11:58;;;;;;;31.65;22.02;;;;;;;;;;4997704;28;25147;-76
2023/08/18 11:14:23;;;;;;;30.25;21.85;;;;;;;;;;5012125;28;25065;-77
2023/08/18 11:16:50;;;;;;;34.92;24.05;;;;;;;;;;5008482;28;25057;-75
2023/08/18 11:19:15;;;;;;;31.80;23.25;;;;;;;;;;5017111;28;25092;-76
2023/08/18 11:21:42;;;;;;;32.45;22.13;;;;;;;;;;5014054;28;25131;-75
2023/08/18 11:24:08;;;;;;;31.40;21.60;;;;;;;;;;5024957;28;25063;-76
2023/08/18 11:26:36;;;;;;;28.98;22.67;;;;;;;;;;5027821;28;25055;-75
2023/08/18 11:29:02;;;;;;;25.60;20.95;;;;;;;;;;5021551;28;25054;-76
2023/08/18 11:31:28;;;;;;;35.70;25.50;;;;;;;;;;5012090;28;25148;-75
2023/08/18 11:33:55;;;;;;;28.83;23.27;;;;;;;;;;5023225;28;25055;-77
2023/08/18 11:36:21;;;;;;;32.50;23.70;;;;;;;;;;5018860;28;25159;-76
2023/08/18 11:38:50;;;;;;;35.03;26.10;;;;;;;;;;5022933;28;25092;-77
2023/08/18 11:41:16;;;;;;;30.27;24.00;;;;;;;;;;5022250;28;25008;-75
2023/08/18 11:43:42;;;;;;;30.98;24.45;;;;;;;;;;5010135;28;25068;-76
2023/08/18 11:46:08;;;;;;;33.90;22.58;;;;;;;;;;5026253;28;25096;-77
2023/08/18 11:48:34;;;;;;;30.80;22.48;;;;;;;;;;5017991;28;25271;-76
2023/08/18 11:51:00;;;;;;;29.95;21.73;;;;;;;;;;5020399;28;25066;-76
2023/08/18 11:53:26;;;;;;;32.78;23.17;;;;;;;;;;5026417;28;25059;-77
2023/08/18 11:55:52;;;;;;;35.10;22.38;;;;;;;;;;5021095;28;25059;-76
2023/08/18 11:58:21;;;;;;;27.70;21.98;;;;;;;;;;5011719;28;25139;-77
2023/08/18 12:00:48;;;;;;;34.47;22.30;;;;;;;;;;5013174;28;25070;-77
2023/08/18 12:03:23;;;;;;;30.90;21.83;;;;;;;;;;5005180;28;25056;-76
2023/08/18 12:05:49;;;;;;;28.15;21.75;;;;;;;;;;5014950;28;25147;-76
2023/08/18 12:08:15;;;;;;;29.05;22.20;;;;;;;;;;5005082;28;25069;-75
2023/08/18 12:10:44;;;;;;;28.08;20.60;;;;;;;;;;5012477;28;25130;-79
2023/08/18 12:13:10;;;;;;;27.45;20.02;;;;;;;;;;5009549;28;25096;-75
2023/08/18 12:15:36;;;;;;;28.30;21.67;;;;;;;;;;5015286;28;25154;-77
2023/08/18 12:18:02;;;;;;;28.00;21.15;;;;;;;;;;5016078;28;25061;-76
2023/08/18 12:20:28;;;;;;;27.08;20.08;;;;;;;;;;5018058;28;25138;-77
2023/08/18 12:22:54;;;;;;;25.52;20.15;;;;;;;;;;5004864;28;25055;-77
2023/08/18 12:25:22;;;;;;;28.20;21.65;;;;;;;;;;5012691;28;25067;-77
2023/08/18 12:27:49;;;;;;;27.55;19.45;;;;;;;;;;5014474;28;25056;-76
2023/08/18 12:30:15;;;;;;;37.75;23.50;;;;;;;;;;5005822;28;25053;-74
2023/08/18 12:32:43;;;;;;;25.92;19.73;;;;;;;;;;5020082;28;25165;-78
2023/08/18 12:35:10;;;;;;;24.70;20.05;;;;;;;;;;5016341;28;25136;-78
2023/08/18 12:37:36;;;;;;;29.02;21.20;;;;;;;;;;5008870;28;25091;-80
2023/08/18 12:40:05;;;;;;;32.67;23.42;;;;;;;;;;5006415;28;25079;-78
2023/08/18 12:42:32;;;;;;;28.67;21.58;;;;;;;;;;5007581;28;25103;-74
2023/08/18 12:44:57;;;;;;;26.33;20.88;;;;;;;;;;5000078;28;25083;-78
2023/08/18 12:47:25;;;;;;;26.02;21.42;;;;;;;;;;5006020;28;25097;-74
2023/08/18 12:49:51;;;;;;;27.10;21.30;;;;;;;;;;5023657;28;25051;-77
2023/08/18 12:52:17;;;;;;;23.90;20.00;;;;;;;;;;5015846;28;25138;-74
2023/08/18 12:54:43;;;;;;;23.60;18.55;;;;;;;;;;5022489;28;25150;-74
2023/08/18 12:57:09;;;;;;;23.45;18.48;;;;;;;;;;5013229;28;25112;-76
2023/08/18 12:59:36;;;;;;;27.17;19.95;;;;;;;;;;5017506;28;25108;-75
2023/08/18 13:02:03;;;;;;;27.00;19.90;;;;;;;;;;5012795;28;25077;-76
2023/08/18 13:04:29;;;;;;;29.23;22.92;;;;;;;;;;4996396;28;25056;-74
2023/08/18 13:06:55;;;;;;;26.15;19.65;;;;;;;;;;5006797;28;25060;-74
2023/08/18 13:09:23;;;;;;;23.58;19.33;;;;;;;;;;5014013;28;25080;-75
2023/08/18 13:11:49;;;;;;;22.05;17.20;;;;;;;;;;5002029;28;25072;-74
2023/08/18 13:14:15;;;;;;;24.00;18.20;;;;;;;;;;5011558;28;25073;-74
2023/08/18 13:16:41;;;;;;;23.77;17.73;;;;;;;;;;5012746;28;25050;-74
2023/08/18 13:19:07;;;;;;;23.40;18.77;;;;;;;;;;5006256;28;25154;-74
2023/08/18 13:21:33;;;;;;;20.98;16.35;;;;;;;;;;5011953;28;25112;-74
2023/08/18 13:23:59;;;;;;;22.70;18.73;;;;;;;;;;5010677;28;25105;-76
2023/08/18 13:26:26;;;;;;;28.35;21.60;;;;;;;;;;5004219;28;25118;-72
2023/08/18 13:28:52;;;;;;;24.55;20.40;;;;;;;;;;5005058;28;25166;-75
2023/08/18 13:31:18;;;;;;;26.95;21.10;;;;;;;;;;5008068;28;25126;-75
2023/08/18 13:33:44;;;;;;;30.85;22.77;;;;;;;;;;4999264;28;25134;-75
2023/08/18 13:36:10;;;;;;;25.08;20.85;;;;;;;;;;5021106;28;25086;-73
2023/08/18 13:38:36;;;;;;;23.50;19.17;;;;;;;;;;5006886;28;25066;-75
2023/08/18 13:41:02;;;;;;;27.75;19.27;;;;;;;;;;5014921;28;25072;-74
2023/08/18 13:43:28;;;;;;;25.83;21.77;;;;;;;;;;5006530;28;25098;-74
2023/08/18 13:45:55;;;;;;;25.75;20.42;;;;;;;;;;5004433;28;25061;-74
2023/08/18 13:48:21;;;;;;;26.23;20.60;;;;;;;;;;5000092;28;25071;-74
2023/08/18 13:50:47;;;;;;;26.13;20.70;;;;;;;;;;5012541;28;25068;-73
2023/08/18 13:53:13;;;;;;;31.50;23.23;;;;;;;;;;5005787;28;25133;-73
2023/08/18 13:55:39;;;;;;;26.52;21.60;;;;;;;;;;5010124;28;25059;-73
2023/08/18 13:58:05;;;;;;;25.98;20.73;;;;;;;;;;5011795;28;25128;-75
2023/08/18 14:00:32;;;;;;;27.20;22.50;;;;;;;;;;4991832;28;25046;-73
2023/08/18 14:02:57;;;;;;;27.30;21.08;;;;;;;;;;5005575;28;25157;-74
2023/08/18 14:05:23;;;;;;;28.58;20.88;;;;;;;;;;5014307;28;25067;-74
2023/08/18 14:07:49;;;;;;;27.08;21.65;;;;;;;;;;5008467;28;25080;-74
2023/08/18 14:10:15;;;;;;;28.13;21.42;;;;;;;;;;5009833;28;25063;-74
2023/08/18 14:12:48;;;;;;;27.38;21.65;;;;;;;;;;5012398;28;25167;-75